Time;durP1;ratioP1;P1;durP2;ratioP2;P2;SDS_P1;SDS_P2;PMS_P1;PMS_P2;Temp;Humidity;BMP_temperature;BMP_pressure;BME280_temperature;BME280_humidity;BME280_pressure;Samples;Min_cycle;Max_cycle;Signal;HPM_P1;HPM_P2
2021/04/28 00:01:18;;;;;;;6.22;1.55;;;;;;;2.30;68.90;101201.16;5055398;28;20088;-78
2021/04/28 00:03:43;;;;;;;2.88;1.90;;;;;;;2.27;69.26;101205.66;5049047;28;20045;-79
2021/04/28 00:06:09;;;;;;;4.53;2.40;;;;;;;2.17;69.54;101207.03;5040308;28;20083;-77
2021/04/28 00:08:34;;;;;;;6.00;2.17;;;;;;;2.12;69.98;101202.94;5051122;28;20067;-78
2021/04/28 00:11:00;;;;;;;6.22;1.90;;;;;;;2.07;70.01;101199.78;5028516;28;20060;-79
2021/04/28 00:13:26;;;;;;;4.68;1.67;;;;;;;2.01;69.98;101200.09;5040563;28;20075;-76
2021/04/28 00:15:52;;;;;;;6.13;1.90;;;;;;;1.97;69.94;101203.75;5044991;28;20044;-79
2021/04/28 00:18:18;;;;;;;5.80;1.83;;;;;;;1.92;70.18;101198.81;5051090;28;20039;-79
2021/04/28 00:20:48;;;;;;;3.50;1.90;;;;;;;1.81;71.04;101205.44;5050315;28;20113;-76
2021/04/28 00:23:15;;;;;;;1.90;1.60;;;;;;;1.77;70.72;101201.34;5046181;28;20071;-76
2021/04/28 00:25:41;;;;;;;4.18;2.03;;;;;;;1.74;71.07;101205.78;5054856;28;20570;-79
2021/04/28 00:28:07;;;;;;;4.72;2.10;;;;;;;1.61;71.56;101198.72;5037474;28;20053;-78
2021/04/28 00:30:33;;;;;;;4.78;2.03;;;;;;;1.51;72.22;101195.78;5051464;28;20055;-77
2021/04/28 00:32:59;;;;;;;2.95;1.85;;;;;;;1.46;72.47;101200.31;5033722;28;20048;-77
2021/04/28 00:35:25;;;;;;;4.05;1.80;;;;;;;1.34;72.72;101191.44;5050738;28;20048;-78
2021/04/28 00:37:52;;;;;;;5.63;2.05;;;;;;;1.29;73.19;101196.81;5062065;28;20045;-79
2021/04/28 00:40:23;;;;;;;4.93;1.98;;;;;;;1.24;73.33;101191.03;5029949;28;20079;-78
2021/04/28 00:42:49;;;;;;;4.55;2.38;;;;;;;1.16;73.17;101191.41;5043879;28;20469;-79
2021/04/28 00:45:17;;;;;;;5.40;2.17;;;;;;;1.19;73.42;101187.00;5031575;28;20036;-77
2021/04/28 00:47:42;;;;;;;5.32;1.92;;;;;;;1.17;74.21;101187.09;5038787;28;20106;-80
2021/04/28 00:50:11;;;;;;;5.43;2.00;;;;;;;1.21;74.07;101182.63;5044221;28;20059;-78
2021/04/28 00:52:38;;;;;;;3.35;1.85;;;;;;;1.25;73.69;101181.56;5051122;28;20059;-78
2021/04/28 00:55:05;;;;;;;4.70;1.88;;;;;;;1.26;73.75;101184.06;5032840;28;20047;-80
2021/04/28 00:57:31;;;;;;;3.75;2.05;;;;;;;1.22;73.25;101181.69;5053839;28;20502;-80
2021/04/28 00:59:57;;;;;;;3.58;1.88;;;;;;;1.20;74.24;101186.94;5034042;28;20795;-79
2021/04/28 01:02:23;;;;;;;3.58;2.40;;;;;;;1.18;73.64;101173.25;5036889;28;20820;-77
2021/04/28 01:04:49;;;;;;;4.75;2.10;;;;;;;1.12;73.59;101173.56;5033850;28;20083;-79
2021/04/28 01:07:17;;;;;;;4.40;1.75;;;;;;;1.12;73.95;101173.56;5043787;28;20044;-77
2021/04/28 01:09:42;;;;;;;4.95;2.38;;;;;;;1.05;73.74;101165.25;5044267;28;20051;-79
2021/04/28 01:12:10;;;;;;;3.28;1.83;;;;;;;1.06;73.83;101166.13;5035182;28;20056;-78
2021/04/28 01:14:35;;;;;;;4.95;2.10;;;;;;;1.07;74.44;101163.44;5013091;28;20459;-79
2021/04/28 01:17:03;;;;;;;4.32;2.10;;;;;;;1.04;74.67;101160.19;5056498;28;20465;-79
2021/04/28 01:19:29;;;;;;;5.03;1.85;;;;;;;1.00;74.41;101154.34;5072178;28;20123;-76
2021/04/28 01:21:56;;;;;;;3.75;1.90;;;;;;;0.97;75.06;101157.06;5071821;28;20131;-81
2021/04/28 01:24:22;;;;;;;4.38;2.20;;;;;;;0.95;74.74;101157.13;5033924;28;20051;-78
2021/04/28 01:26:51;;;;;;;2.40;1.80;;;;;;;0.95;75.09;101159.72;5061772;28;20562;-80
2021/04/28 01:29:21;;;;;;;2.58;1.80;;;;;;;0.93;74.63;101152.97;5032230;28;20037;-80
2021/04/28 01:31:48;;;;;;;6.78;1.90;;;;;;;0.89;75.15;101151.44;5069771;28;20044;-80
2021/04/28 01:34:14;;;;;;;3.35;1.90;;;;;;;0.93;75.26;101150.38;5055987;28;20083;-78
2021/04/28 01:36:41;;;;;;;6.47;1.90;;;;;;;0.86;75.11;101143.81;5074806;28;20048;-76
2021/04/28 01:39:12;;;;;;;5.57;2.08;;;;;;;0.92;75.08;101143.53;5053176;28;20127;-76
2021/04/28 01:41:43;;;;;;;3.80;1.83;;;;;;;0.87;75.16;101141.19;5056460;28;20128;-78
2021/04/28 01:44:16;;;;;;;5.47;1.70;;;;;;;0.87;75.47;101132.59;5040735;28;20052;-80
2021/04/28 01:46:42;;;;;;;6.63;2.22;;;;;;;0.95;75.04;101140.81;5063256;28;20410;-79
2021/04/28 01:49:10;;;;;;;4.50;1.85;;;;;;;0.93;75.25;101140.88;5050298;28;20044;-79
2021/04/28 01:51:37;;;;;;;5.22;1.88;;;;;;;0.91;75.38;101134.94;5093466;28;20044;-81
2021/04/28 01:54:05;;;;;;;6.40;2.45;;;;;;;0.89;75.53;101138.53;5076979;28;20051;-80
2021/04/28 01:56:32;;;;;;;8.32;2.10;;;;;;;0.89;75.12;101139.34;5038439;28;20040;-78
2021/04/28 01:59:21;;;;;;;3.05;1.90;;;;;;;0.90;75.14;101140.19;5074018;28;20068;-77
2021/04/28 02:02:03;;;;;;;7.28;1.88;;;;;;;0.96;74.72;101134.72;5040257;28;20041;-80
2021/04/28 02:04:32;;;;;;;2.95;2.10;;;;;;;0.84;75.20;101130.97;5021836;28;20155;-81
2021/04/28 02:06:58;;;;;;;3.80;2.13;;;;;;;0.82;75.33;101131.97;5039985;28;20043;-79
2021/04/28 02:09:24;;;;;;;8.18;2.03;;;;;;;0.76;75.72;101126.19;5054894;28;20496;-77
2021/04/28 02:11:50;;;;;;;7.38;2.40;;;;;;;0.66;75.25;101124.97;5049063;28;20126;-76
2021/04/28 02:14:20;;;;;;;7.93;2.30;;;;;;;0.62;75.91;101126.00;5057533;28;20124;-79
2021/04/28 02:17:02;;;;;;;7.05;1.88;;;;;;;0.54;75.34;101123.78;5044461;28;20055;-78
2021/04/28 02:19:31;;;;;;;4.72;2.15;;;;;;;0.53;76.44;101121.31;5044142;28;20041;-79
2021/04/28 02:21:57;;;;;;;9.00;2.83;;;;;;;0.52;76.52;101115.28;5034853;28;20271;-79
2021/04/28 02:24:55;;;;;;;3.80;2.20;;;;;;;0.52;76.60;101117.88;5018600;28;20036;-80
2021/04/28 02:27:43;;;;;;;4.53;1.88;;;;;;;0.48;76.30;101112.94;5039924;28;20477;-79
2021/04/28 02:30:13;;;;;;;3.70;2.20;;;;;;;0.43;76.45;101120.03;5029882;28;20151;-78
2021/04/28 02:32:39;;;;;;;3.55;2.08;;;;;;;0.39;76.56;101111.59;5059654;28;20044;-80
2021/04/28 02:35:13;;;;;;;8.17;2.30;;;;;;;0.37;76.69;101110.84;5050603;28;20502;-75
2021/04/28 02:37:57;;;;;;;4.53;2.13;;;;;;;0.33;76.59;101111.91;5035239;28;20351;-81
2021/04/28 02:41:01;;;;;;;2.17;1.98;;;;;;;0.29;77.21;101110.38;5030878;28;20063;-79
2021/04/28 02:43:28;;;;;;;4.00;2.03;;;;;;;0.27;77.17;101105.28;5056069;28;20075;-79
2021/04/28 02:46:10;;;;;;;4.68;1.77;;;;;;;0.31;77.64;101105.97;5057126;28;20560;-77
2021/04/28 02:48:42;;;;;;;3.30;2.00;;;;;;;0.35;76.99;101102.34;5042649;28;20106;-78
2021/04/28 02:51:40;;;;;;;5.15;2.30;;;;;;;0.42;76.96;101100.31;5026275;28;20456;-76
2021/04/28 02:54:39;;;;;;;7.05;2.38;;;;;;;0.37;76.79;101097.94;5044618;28;20048;-78
2021/04/28 02:57:08;;;;;;;6.70;2.10;;;;;;;0.39;76.92;101094.38;5038756;28;20123;-80
2021/04/28 02:59:33;;;;;;;2.80;2.10;;;;;;;0.37;76.47;101098.78;5024457;28;20048;-79
2021/04/28 03:01:59;;;;;;;5.15;2.28;;;;;;;0.35;76.86;101098.00;5077667;28;20447;-76
2021/04/28 03:04:26;;;;;;;4.28;2.53;;;;;;;0.30;76.38;101099.13;5055500;28;20104;-80
2021/04/28 03:07:10;;;;;;;6.13;2.47;;;;;;;0.26;76.74;101102.78;5034358;28;20442;-78
2021/04/28 03:09:36;;;;;;;5.45;2.88;;;;;;;0.29;77.02;101093.16;5049374;28;20429;-78
2021/04/28 03:12:03;;;;;;;5.20;2.45;;;;;;;0.26;76.57;101092.44;5048462;28;20052;-78
2021/04/28 03:14:36;;;;;;;3.05;2.30;;;;;;;0.21;76.53;101090.09;5038689;28;20075;-80
2021/04/28 03:17:03;;;;;;;5.20;2.70;;;;;;;0.19;76.46;101089.34;5053942;28;20421;-81
2021/04/28 03:19:30;;;;;;;3.80;2.67;;;;;;;0.14;77.23;101094.69;5062075;28;20125;-76
2021/04/28 03:21:56;;;;;;;3.55;2.63;;;;;;;0.11;76.98;101086.25;5010554;28;20072;-78
2021/04/28 03:24:22;;;;;;;5.43;2.30;;;;;;;0.06;77.35;101072.72;5037578;28;20493;-77
2021/04/28 03:26:53;;;;;;;6.72;2.63;;;;;;;0.06;77.85;101078.75;5033322;28;20036;-78
2021/04/28 03:29:19;;;;;;;3.08;2.38;;;;;;;0.01;77.76;101070.38;5025556;28;20558;-79
2021/04/28 03:31:45;;;;;;;4.45;2.38;;;;;;;-0.05;77.84;101071.50;5051488;28;20045;-79
2021/04/28 03:34:11;;;;;;;3.65;2.30;;;;;;;-0.05;77.90;101073.25;5068030;28;20044;-81
2021/04/28 03:36:37;;;;;;;3.70;1.83;;;;;;;-0.13;78.24;101078.75;5040014;28;20055;-81
2021/04/28 03:39:13;;;;;;;4.45;2.60;;;;;;;-0.15;78.58;101070.25;5071571;28;20089;-78
2021/04/28 03:41:39;;;;;;;3.47;2.38;;;;;;;-0.12;78.18;101075.25;5056129;28;20104;-80
2021/04/28 03:44:06;;;;;;;4.57;2.08;;;;;;;-0.14;78.47;101074.47;5055296;28;20044;-79
2021/04/28 03:46:32;;;;;;;4.95;2.33;;;;;;;-0.21;78.59;101070.50;5048438;28;20042;-82
2021/04/28 03:48:59;;;;;;;5.13;2.65;;;;;;;-0.30;78.40;101074.34;5044198;28;20044;-78
2021/04/28 03:51:26;;;;;;;3.58;2.72;;;;;;;-0.31;78.90;101072.66;5093587;28;20470;-79
2021/04/28 03:54:13;;;;;;;3.90;2.47;;;;;;;-0.30;78.95;101060.59;5038518;28;20505;-79
2021/04/28 03:56:40;;;;;;;4.65;2.30;;;;;;;-0.28;79.34;101067.38;5056589;28;20501;-79
2021/04/28 03:59:06;;;;;;;3.67;2.45;;;;;;;-0.29;79.36;101063.13;5045561;28;20036;-79
2021/04/28 04:01:32;;;;;;;7.75;2.67;;;;;;;-0.29;79.26;101072.59;5044041;28;20066;-78
2021/04/28 04:03:58;;;;;;;7.15;2.67;;;;;;;-0.33;79.11;101071.91;5053835;28;20040;-77
2021/04/28 04:06:53;;;;;;;5.10;3.08;;;;;;;-0.31;79.27;101064.94;5044143;28;20044;-79
2021/04/28 04:09:36;;;;;;;4.90;2.65;;;;;;;-0.29;79.37;101073.44;5038655;28;20395;-79
2021/04/28 04:12:03;;;;;;;5.38;2.60;;;;;;;-0.27;79.16;101061.31;5014379;28;20048;-78
2021/04/28 04:14:35;;;;;;;4.93;2.70;;;;;;;-0.27;79.25;101065.63;5045584;28;20051;-77
2021/04/28 04:17:01;;;;;;;4.10;2.65;;;;;;;-0.30;79.49;101066.63;5042944;28;20049;-81
2021/04/28 04:19:27;;;;;;;12.65;2.92;;;;;;;-0.25;79.47;101067.22;5031926;28;20047;-76
2021/04/28 04:22:09;;;;;;;6.10;3.30;;;;;;;-0.15;78.87;101070.25;5045275;28;20048;-80
2021/04/28 04:24:58;;;;;;;5.93;2.58;;;;;;;-0.07;79.03;101064.75;5023270;28;20564;-79
2021/04/28 04:27:24;;;;;;;7.30;3.10;;;;;;;-0.04;78.61;101062.88;5054972;28;20036;-76
2021/04/28 04:30:06;;;;;;;6.25;2.88;;;;;;;0.03;78.81;101071.13;5051914;28;20040;-82
2021/04/28 04:32:52;;;;;;;6.05;2.50;;;;;;;0.14;78.12;101068.06;5003788;28;20751;-79
2021/04/28 04:35:46;;;;;;;9.27;3.13;;;;;;;0.22;78.04;101071.13;5036863;28;20051;-78
2021/04/28 04:38:27;;;;;;;6.35;3.03;;;;;;;0.33;77.33;101068.88;5034414;28;20037;-78
2021/04/28 04:41:09;;;;;;;9.35;3.15;;;;;;;0.48;76.27;101062.13;5024858;28;20503;-80
2021/04/28 04:43:43;;;;;;;6.72;3.00;;;;;;;0.50;75.96;101062.06;5030583;28;20047;-82
2021/04/28 04:46:15;;;;;;;6.07;3.00;;;;;;;0.68;75.39;101068.06;5026884;28;20049;-80
2021/04/28 04:48:41;;;;;;;4.68;2.92;;;;;;;0.69;75.52;101065.41;5053508;28;20094;-81
2021/04/28 04:51:07;;;;;;;6.07;3.13;;;;;;;0.81;74.83;101064.00;5010582;28;20068;-78
2021/04/28 04:53:32;;;;;;;6.72;3.30;;;;;;;0.87;74.76;101058.53;5012013;28;20057;-81
2021/04/28 04:55:57;;;;;;;7.88;3.13;;;;;;;0.99;73.91;101053.66;5013665;28;20569;-80
2021/04/28 04:58:23;;;;;;;4.68;2.65;;;;;;;1.08;73.82;101061.78;5043236;28;20406;-78
2021/04/28 05:00:48;;;;;;;7.53;3.25;;;;;;;1.12;73.72;101060.69;5015545;28;20510;-79
2021/04/28 05:03:14;;;;;;;6.75;3.38;;;;;;;1.19;73.29;101057.78;5006848;28;20049;-79
2021/04/28 05:05:39;;;;;;;5.70;3.13;;;;;;;1.29;73.09;101054.66;5017479;28;20056;-78
2021/04/28 05:08:05;;;;;;;6.03;3.10;;;;;;;1.37;72.45;101049.09;5049866;28;20044;-79
2021/04/28 05:10:31;;;;;;;8.02;3.33;;;;;;;1.43;72.12;101053.97;5021464;28;20124;-78
2021/04/28 05:12:56;;;;;;;9.32;3.25;;;;;;;1.59;71.18;101056.59;5061683;28;20499;-78
2021/04/28 05:15:21;;;;;;;7.13;2.88;;;;;;;1.68;71.17;101047.50;5060513;28;20053;-78
2021/04/28 05:17:47;;;;;;;4.65;2.95;;;;;;;1.83;70.71;101048.41;5028827;28;20041;-78
2021/04/28 05:20:13;;;;;;;10.20;3.28;;;;;;;2.04;69.35;101049.84;5034705;28;20118;-79
2021/04/28 05:22:39;;;;;;;9.88;3.50;;;;;;;2.08;69.33;101047.94;5050481;28;20044;-80
2021/04/28 05:25:31;;;;;;;7.22;3.20;;;;;;;2.20;69.58;101044.66;5045467;28;20530;-79
2021/04/28 05:27:56;;;;;;;9.90;3.40;;;;;;;2.37;68.82;101046.31;5054151;28;20490;-80
2021/04/28 05:30:22;;;;;;;6.50;3.20;;;;;;;2.53;68.48;101041.94;5059321;28;20044;-78
2021/04/28 05:32:49;;;;;;;5.53;3.50;;;;;;;2.67;68.64;101045.50;5037866;28;20048;-80
2021/04/28 05:35:15;;;;;;;4.40;3.10;;;;;;;2.86;67.25;101047.84;5065982;28;20072;-79
2021/04/28 05:37:41;;;;;;;8.45;3.25;;;;;;;3.02;66.14;101045.22;5023102;28;20056;-79
2021/04/28 05:40:08;;;;;;;7.22;3.08;;;;;;;3.14;65.50;101036.69;5014694;28;20094;-79
2021/04/28 05:42:34;;;;;;;4.97;3.05;;;;;;;3.33;65.48;101033.00;5001811;28;20045;-79
2021/04/28 05:45:00;;;;;;;7.07;3.25;;;;;;;3.54;64.84;101038.66;5033007;28;20052;-79
2021/04/28 05:47:26;;;;;;;4.80;3.20;;;;;;;3.76;64.83;101023.41;5053652;28;20102;-80
2021/04/28 05:49:51;;;;;;;8.23;3.28;;;;;;;3.94;63.46;101034.44;5023458;28;20060;-79
2021/04/28 05:52:17;;;;;;;5.75;3.28;;;;;;;4.24;62.41;101036.84;5035031;28;20048;-80
2021/04/28 05:54:43;;;;;;;6.53;3.10;;;;;;;4.51;61.70;101042.94;5074401;28;20040;-81
2021/04/28 05:57:09;;;;;;;7.18;3.63;;;;;;;4.87;58.91;101044.88;5034149;28;20964;-76
2021/04/28 05:59:35;;;;;;;5.80;3.38;;;;;;;4.99;59.07;101041.47;5050835;28;20624;-76
2021/04/28 06:02:01;;;;;;;5.63;3.30;;;;;;;5.09;58.44;101033.06;5000772;28;20048;-78
2021/04/28 06:04:26;;;;;;;7.97;3.53;;;;;;;5.07;56.58;101025.34;5032234;28;20143;-79
2021/04/28 06:06:52;;;;;;;7.15;3.40;;;;;;;5.07;57.46;101022.75;5035922;28;20045;-79
2021/04/28 06:09:18;;;;;;;5.20;3.30;;;;;;;5.12;57.87;101027.63;5055759;28;20044;-78
2021/04/28 06:11:44;;;;;;;4.80;3.40;;;;;;;5.22;57.44;101039.09;5037632;28;20064;-79
2021/04/28 06:14:11;;;;;;;5.13;3.38;;;;;;;5.38;56.51;101026.69;5036117;28;20064;-79
2021/04/28 06:16:36;;;;;;;8.23;3.95;;;;;;;5.54;56.82;101025.59;5032188;28;20037;-78
2021/04/28 06:19:02;;;;;;;5.72;3.25;;;;;;;5.69;55.92;101024.56;5041303;28;20467;-79
2021/04/28 06:21:28;;;;;;;10.38;3.75;;;;;;;5.92;53.24;101022.91;5052130;28;20398;-76
2021/04/28 06:23:53;;;;;;;4.78;3.40;;;;;;;6.03;53.58;101032.63;5071146;28;20044;-79
2021/04/28 06:26:19;;;;;;;6.35;3.38;;;;;;;6.10;52.64;101025.16;5045013;28;20040;-77
2021/04/28 06:28:46;;;;;;;5.82;3.60;;;;;;;6.15;51.82;101028.28;5048030;28;20115;-79
2021/04/28 06:31:12;;;;;;;7.55;3.45;;;;;;;6.27;51.44;101016.97;5015425;28;20048;-79
2021/04/28 06:33:39;;;;;;;5.32;3.17;;;;;;;6.32;50.31;101019.25;5033315;28;20502;-78
2021/04/28 06:36:05;;;;;;;7.65;3.55;;;;;;;6.27;50.85;101019.56;5040227;28;20533;-77
2021/04/28 06:38:30;;;;;;;7.00;3.40;;;;;;;6.35;50.71;101019.84;5051821;28;20044;-80
2021/04/28 06:40:56;;;;;;;6.63;3.83;;;;;;;6.47;49.81;101010.28;5033969;28;20056;-77
2021/04/28 06:43:21;;;;;;;5.93;3.70;;;;;;;6.63;49.66;101004.78;5051597;28;20048;-78
2021/04/28 06:45:46;;;;;;;6.78;3.38;;;;;;;6.90;48.20;101008.88;5027529;28;20044;-77
2021/04/28 06:48:12;;;;;;;7.57;4.10;;;;;;;7.01;48.27;101011.50;5054282;28;20040;-78
2021/04/28 06:50:37;;;;;;;6.05;3.63;;;;;;;7.16;48.38;101007.72;5062872;28;20135;-78
2021/04/28 06:53:03;;;;;;;5.72;3.70;;;;;;;7.29;47.53;101009.38;5039633;28;20037;-80
2021/04/28 06:55:28;;;;;;;7.68;3.58;;;;;;;7.34;47.95;100994.19;5004465;28;20069;-76
2021/04/28 06:57:55;;;;;;;12.20;4.20;;;;;;;7.56;47.50;100995.97;5030905;28;20122;-78
2021/04/28 07:00:27;;;;;;;7.45;3.92;;;;;;;7.70;46.83;100990.47;5042142;28;20098;-77
2021/04/28 07:02:56;;;;;;;7.97;3.70;;;;;;;7.90;45.67;100988.06;5044693;28;20132;-77
2021/04/28 07:05:24;;;;;;;6.72;4.22;;;;;;;7.98;46.38;101004.75;5067618;28;20567;-81
2021/04/28 07:07:51;;;;;;;7.22;4.30;;;;;;;8.10;45.77;100994.28;5013967;28;20409;-76
2021/04/28 07:10:17;;;;;;;8.50;4.45;;;;;;;8.22;45.03;100995.91;5040759;28;20045;-77
2021/04/28 07:12:43;;;;;;;8.10;4.10;;;;;;;8.30;45.21;100995.28;5047665;28;20059;-76
2021/04/28 07:15:09;;;;;;;8.85;3.78;;;;;;;8.51;43.95;100995.31;5027329;28;20055;-76
2021/04/28 07:17:35;;;;;;;12.50;4.10;;;;;;;8.57;43.29;100990.44;5063707;28;20102;-78
2021/04/28 07:20:06;;;;;;;8.88;4.90;;;;;;;8.71;43.47;100989.28;5045303;28;20518;-80
2021/04/28 07:22:31;;;;;;;9.05;4.10;;;;;;;8.80;42.95;100982.44;5081302;28;20043;-79
2021/04/28 07:24:57;;;;;;;10.40;4.00;;;;;;;8.92;42.22;100989.25;5054064;28;20047;-77
2021/04/28 07:27:23;;;;;;;6.88;4.20;;;;;;;9.00;42.08;100979.94;5050599;28;20059;-77
2021/04/28 07:29:48;;;;;;;5.93;3.60;;;;;;;9.19;42.80;100979.19;5036363;28;20110;-79
2021/04/28 07:32:16;;;;;;;10.25;4.65;;;;;;;9.32;42.81;100978.00;5025757;28;20532;-77
2021/04/28 07:34:42;;;;;;;8.98;4.13;;;;;;;9.38;41.73;100971.41;5047476;28;20076;-77
2021/04/28 07:37:07;;;;;;;6.55;4.05;;;;;;;9.48;41.61;100979.28;5030699;28;20130;-80
2021/04/28 07:39:34;;;;;;;8.02;4.00;;;;;;;9.61;42.28;100976.44;5031475;28;20494;-80
2021/04/28 07:42:00;;;;;;;6.43;4.07;;;;;;;9.72;40.64;100968.47;5024694;28;20037;-79
2021/04/28 07:44:30;;;;;;;6.72;3.63;;;;;;;9.75;40.43;100979.47;5031796;28;20079;-77
2021/04/28 07:46:56;;;;;;;5.80;3.83;;;;;;;9.87;40.07;100964.47;5015087;28;20635;-76
2021/04/28 07:49:21;;;;;;;8.63;3.85;;;;;;;9.97;40.21;100974.97;5046459;28;20087;-77
2021/04/28 07:51:47;;;;;;;6.13;3.63;;;;;;;10.16;40.05;100968.09;5014470;28;20045;-78
2021/04/28 07:54:12;;;;;;;8.95;3.80;;;;;;;10.20;38.82;100959.78;5022777;28;20490;-78
2021/04/28 07:56:38;;;;;;;12.30;4.18;;;;;;;10.35;39.67;100954.16;5053816;28;20052;-77
2021/04/28 07:59:04;;;;;;;6.78;3.67;;;;;;;10.24;38.40;100952.47;5055568;28;20044;-77
2021/04/28 08:01:29;;;;;;;7.78;4.05;;;;;;;10.43;38.99;100952.47;5044301;28;20068;-75
2021/04/28 08:03:57;;;;;;;9.23;3.97;;;;;;;10.57;39.53;100951.22;5017574;28;20049;-79
2021/04/28 08:06:23;;;;;;;6.38;3.90;;;;;;;10.63;37.71;100949.84;5030804;28;20041;-76
2021/04/28 08:08:49;;;;;;;9.02;4.00;;;;;;;10.81;37.04;100942.88;5044283;28;20457;-76
2021/04/28 08:11:15;;;;;;;6.30;3.65;;;;;;;10.99;38.48;100942.94;5065446;28;20572;-76
2021/04/28 08:13:40;;;;;;;6.40;3.55;;;;;;;11.12;37.08;100934.75;5046913;28;20064;-77
2021/04/28 08:16:07;;;;;;;5.70;3.78;;;;;;;11.14;36.03;100942.50;5032292;28;20055;-80
2021/04/28 08:18:33;;;;;;;5.38;3.55;;;;;;;11.18;36.32;100941.22;5015571;28;20053;-77
2021/04/28 08:20:59;;;;;;;9.05;3.70;;;;;;;11.28;36.77;100939.34;5025937;28;20037;-77
2021/04/28 08:23:29;;;;;;;11.32;3.60;;;;;;;11.47;36.72;100941.91;5024437;28;20044;-79
2021/04/28 08:26:02;;;;;;;5.95;3.45;;;;;;;11.53;37.41;100937.84;5050559;28;20418;-78
2021/04/28 08:28:28;;;;;;;4.70;3.53;;;;;;;11.70;36.89;100944.09;5038523;28;20044;-76
2021/04/28 08:30:54;;;;;;;4.72;3.22;;;;;;;11.79;36.48;100937.09;5065111;28;20075;-76
2021/04/28 08:33:20;;;;;;;6.88;3.70;;;;;;;11.96;35.51;100935.50;5052645;28;20063;-79
2021/04/28 08:35:46;;;;;;;5.00;3.22;;;;;;;12.06;34.45;100938.88;5070097;28;20130;-77
2021/04/28 08:38:11;;;;;;;5.55;3.40;;;;;;;11.97;34.00;100930.09;5044784;28;20166;-75
2021/04/28 08:40:38;;;;;;;6.75;3.40;;;;;;;11.87;34.48;100930.13;5048464;28;20184;-77
2021/04/28 08:43:04;;;;;;;5.93;3.42;;;;;;;12.03;34.67;100926.03;5041992;28;20602;-78
2021/04/28 08:45:30;;;;;;;7.95;3.60;;;;;;;12.16;33.34;100925.66;5041944;28;20177;-77
2021/04/28 08:47:56;;;;;;;5.07;3.38;;;;;;;12.13;32.54;100928.56;5048589;28;20074;-79
2021/04/28 08:50:22;;;;;;;5.78;3.25;;;;;;;12.20;32.05;100919.91;5032594;28;20113;-79
2021/04/28 08:52:51;;;;;;;7.38;3.90;;;;;;;12.19;31.71;100917.47;5033558;28;20766;-81
2021/04/28 08:55:19;;;;;;;6.82;3.28;;;;;;;12.23;30.70;100921.44;5047259;28;20047;-77
2021/04/28 08:57:45;;;;;;;5.97;3.65;;;;;;;12.39;32.46;100924.16;5029138;28;20045;-79
2021/04/28 09:00:12;;;;;;;7.60;3.42;;;;;;;12.39;32.46;100918.09;5026550;28;20046;-77
2021/04/28 09:02:57;;;;;;;9.48;3.55;;;;;;;12.67;31.27;100921.38;5061788;28;20066;-73
2021/04/28 09:05:23;;;;;;;3.85;3.13;;;;;;;12.55;31.97;100925.28;5034689;28;20040;-77
2021/04/28 09:07:50;;;;;;;4.97;3.47;;;;;;;12.51;30.71;100908.13;5034446;28;20044;-80
2021/04/28 09:10:18;;;;;;;6.32;3.20;;;;;;;12.51;31.07;100916.88;5051448;28;20091;-80
2021/04/28 09:13:04;;;;;;;6.32;3.22;;;;;;;12.65;29.49;100910.19;5026825;28;20062;-76
2021/04/28 09:15:46;;;;;;;6.90;3.53;;;;;;;12.64;31.02;100906.75;5085982;28;20040;-75
2021/04/28 09:18:15;;;;;;;8.48;2.97;;;;;;;12.79;30.33;100909.63;5037268;28;20040;-78
2021/04/28 09:21:00;;;;;;;8.05;3.00;;;;;;;13.06;30.07;100905.13;5072551;28;20111;-76
2021/04/28 09:23:44;;;;;;;3.80;3.03;;;;;;;13.17;28.89;100898.75;5063418;28;20043;-79
2021/04/28 09:26:31;;;;;;;8.80;3.40;;;;;;;13.04;28.66;100900.00;5074423;28;20049;-79
2021/04/28 09:28:57;;;;;;;4.70;3.38;;;;;;;13.05;29.46;100901.69;5012070;28;20048;-79
2021/04/28 09:31:22;;;;;;;5.38;3.60;;;;;;;13.08;28.72;100897.88;5041109;28;20032;-75
2021/04/28 09:33:55;;;;;;;7.22;4.10;;;;;;;13.14;28.82;100894.63;5048485;28;20055;-78
2021/04/28 09:36:38;;;;;;;4.65;3.53;;;;;;;13.05;29.81;100880.63;5034488;28;20052;-77
2021/04/28 09:39:17;;;;;;;8.55;3.67;;;;;;;13.28;30.64;100885.28;5067960;28;20087;-78
2021/04/28 09:41:44;;;;;;;5.03;3.30;;;;;;;13.37;29.67;100875.59;5018370;28;20139;-77
2021/04/28 09:44:18;;;;;;;10.73;4.05;;;;;;;13.39;30.55;100882.38;5036778;28;20462;-78
2021/04/28 09:46:54;;;;;;;6.32;3.63;;;;;;;13.54;31.84;100876.47;5025307;28;20048;-75
2021/04/28 09:49:20;;;;;;;4.45;3.50;;;;;;;13.73;30.28;100870.06;5046306;28;20603;-80
2021/04/28 09:51:53;;;;;;;8.73;3.58;;;;;;;13.87;31.16;100872.06;5070617;28;20047;-77
2021/04/28 09:54:28;;;;;;;8.50;3.70;;;;;;;13.87;31.09;100865.97;5041381;28;20486;-78
2021/04/28 09:56:53;;;;;;;5.97;4.05;;;;;;;14.00;29.95;100867.09;5025205;28;20056;-78
2021/04/28 09:59:19;;;;;;;4.65;3.75;;;;;;;14.09;29.50;100862.66;5065415;28;20044;-77
2021/04/28 10:01:44;;;;;;;11.75;4.55;;;;;;;13.96;28.96;100857.06;5069577;28;20036;-77
2021/04/28 10:04:10;;;;;;;12.25;4.35;;;;;;;14.11;28.52;100852.75;5036980;28;20045;-76
2021/04/28 10:06:42;;;;;;;7.85;3.70;;;;;;;14.14;28.73;100857.69;5050324;28;20068;-78
2021/04/28 10:09:31;;;;;;;6.07;4.03;;;;;;;14.29;28.76;100849.91;5050894;28;20067;-77
2021/04/28 10:11:59;;;;;;;10.02;5.15;;;;;;;14.34;28.92;100847.59;5039410;28;20041;-77
2021/04/28 10:14:26;;;;;;;7.60;4.15;;;;;;;14.55;30.77;100835.66;5048755;28;20072;-80
2021/04/28 10:16:56;;;;;;;5.03;3.80;;;;;;;14.97;31.00;100843.28;5034520;28;20135;-77
2021/04/28 10:19:23;;;;;;;11.13;4.75;;;;;;;14.87;28.35;100833.91;5079637;28;20048;-81
2021/04/28 10:21:50;;;;;;;8.77;4.50;;;;;;;14.69;28.53;100823.59;5013182;28;20124;-76
2021/04/28 10:24:18;;;;;;;9.40;4.53;;;;;;;14.74;28.34;100827.34;5045679;28;20095;-79
2021/04/28 10:26:44;;;;;;;7.30;4.63;;;;;;;14.77;29.04;100834.94;5055816;28;20040;-78
2021/04/28 10:29:13;;;;;;;6.63;3.90;;;;;;;14.93;29.67;100831.41;5027306;28;20506;-77
2021/04/28 10:31:39;;;;;;;8.55;4.40;;;;;;;15.04;28.59;100821.44;4998709;28;20071;-78
2021/04/28 10:34:07;;;;;;;8.52;4.72;;;;;;;14.97;28.50;100821.31;5015522;28;20106;-79
2021/04/28 10:36:34;;;;;;;7.13;4.82;;;;;;;14.94;29.24;100826.97;5030182;28;20457;-77
2021/04/28 10:39:01;;;;;;;8.50;5.22;;;;;;;15.10;31.26;100826.84;5017765;28;20858;-77
2021/04/28 10:41:42;;;;;;;9.45;4.78;;;;;;;15.61;30.12;100825.53;5033857;28;20139;-80
2021/04/28 10:44:30;;;;;;;9.10;5.00;;;;;;;15.59;29.63;100823.06;5046013;28;20118;-77
2021/04/28 10:47:33;;;;;;;8.05;5.18;;;;;;;15.57;28.57;100811.84;5035767;28;20403;-80
2021/04/28 10:50:37;;;;;;;12.73;5.38;;;;;;;15.51;28.89;100810.72;4998140;28;20045;-78
2021/04/28 10:53:16;;;;;;;10.27;5.80;;;;;;;15.40;29.26;100805.84;4975506;28;20052;-79
2021/04/28 10:55:56;;;;;;;7.30;5.07;;;;;;;15.57;29.10;100806.56;5041237;28;20055;-79
2021/04/28 10:58:25;;;;;;;11.52;5.57;;;;;;;15.34;28.25;100801.28;5059349;28;20028;-79
2021/04/28 11:01:00;;;;;;;7.65;5.32;;;;;;;15.24;29.23;100800.66;5039735;28;20396;-78
2021/04/28 11:03:34;;;;;;;9.15;5.32;;;;;;;15.42;28.97;100800.41;5040498;28;20064;-78
2021/04/28 11:06:25;;;;;;;10.07;5.50;;;;;;;15.65;28.70;100797.72;5045306;28;20053;-77
2021/04/28 11:08:54;;;;;;;11.85;5.47;;;;;;;15.63;28.72;100805.81;5045733;28;20049;-79
2021/04/28 11:11:41;;;;;;;11.10;5.70;;;;;;;15.52;28.83;100799.16;5020027;28;20064;-81
2021/04/28 11:14:11;;;;;;;10.48;5.63;;;;;;;15.61;27.76;100799.91;5051168;28;20104;-81
2021/04/28 11:16:41;;;;;;;10.07;5.97;;;;;;;15.56;28.49;100789.06;5031111;28;20090;-80
2021/04/28 11:19:21;;;;;;;8.90;5.18;;;;;;;15.74;28.06;100783.47;5028601;28;20086;-77
2021/04/28 11:22:10;;;;;;;14.13;6.45;;;;;;;15.70;27.94;100785.63;5012742;28;20070;-80
2021/04/28 11:25:07;;;;;;;10.40;6.28;;;;;;;15.76;28.08;100781.47;5005342;28;20047;-78
2021/04/28 11:27:57;;;;;;;12.88;6.35;;;;;;;15.74;28.35;100776.34;5062510;28;20040;-76
2021/04/28 11:30:28;;;;;;;11.07;6.07;;;;;;;16.07;31.94;100775.22;5049704;28;20056;-79
2021/04/28 11:33:08;;;;;;;12.88;6.22;;;;;;;16.31;28.56;100774.94;5055692;28;20102;-75
2021/04/28 11:35:35;;;;;;;11.43;6.13;;;;;;;16.20;27.50;100772.75;5082477;28;20048;-78
2021/04/28 11:38:03;;;;;;;10.30;6.30;;;;;;;16.04;27.80;100770.28;5030297;28;20114;-75
2021/04/28 11:41:05;;;;;;;11.00;6.20;;;;;;;16.27;29.19;100778.94;5050424;28;20045;-76
2021/04/28 11:43:46;;;;;;;8.60;6.15;;;;;;;16.44;29.30;100760.22;5006253;28;20041;-81